Time;durP1;ratioP1;P1;durP2;ratioP2;P2;SDS_P1;SDS_P2;PMS_P1;PMS_P2;Temp;Humidity;BMP_temperature;BMP_pressure;BME280_temperature;BME280_humidity;BME280_pressure;Samples;Min_cycle;Max_cycle;Signal;HPM_P1;HPM_P2
2021/09/15 00:00:34;;;;;;;76.35;24.08;;;;;;;-149.78;100.00;50440.16;5030115;28;20061;-60
2021/09/15 00:03:00;;;;;;;70.82;24.05;;;;;;;-149.78;100.00;50430.38;5021330;28;20458;-60
2021/09/15 00:05:26;;;;;;;67.80;22.02;;;;;;;-149.78;100.00;50414.72;5024085;28;20099;-61
2021/09/15 00:07:51;;;;;;;73.70;22.52;;;;;;;-149.78;100.00;50418.63;5020662;28;20049;-61
2021/09/15 00:10:18;;;;;;;72.32;22.40;;;;;;;-149.78;100.00;50424.50;5016894;28;20038;-61
2021/09/15 00:12:44;;;;;;;61.78;20.60;;;;;;;-149.78;100.00;50416.69;5018394;28;20463;-61
2021/09/15 00:15:10;;;;;;;61.35;21.05;;;;;;;-149.78;100.00;50401.03;5021701;28;20049;-61
2021/09/15 00:17:36;;;;;;;58.80;20.70;;;;;;;-149.78;100.00;50422.56;5026481;28;20440;-60
2021/09/15 00:20:04;;;;;;;66.43;22.10;;;;;;;-149.78;100.00;50451.88;5013449;28;20038;-61
2021/09/15 00:22:29;;;;;;;62.88;21.25;;;;;;;-149.78;100.00;50408.84;5027917;28;20060;-61
2021/09/15 00:24:55;;;;;;;58.83;20.45;;;;;;;-149.78;100.00;50404.94;5024466;28;20069;-60
2021/09/15 00:27:22;;;;;;;62.90;21.00;;;;;;;-149.78;100.00;50440.16;5028866;28;20128;-61
2021/09/15 00:29:48;;;;;;;53.55;20.13;;;;;;;-149.78;100.00;50373.66;5020366;28;20458;-60
2021/09/15 00:32:13;;;;;;;57.55;20.67;;;;;;;-149.78;100.00;50401.03;5025468;28;20129;-60
2021/09/15 00:34:39;;;;;;;63.30;20.63;;;;;;;-149.78;100.00;50404.94;5030928;28;20034;-61
2021/09/15 00:37:05;;;;;;;60.45;20.35;;;;;;;-149.78;100.00;50416.69;5032470;28;20377;-61
2021/09/15 00:39:30;;;;;;;60.95;19.63;;;;;;;-149.78;100.00;50424.50;5029221;28;20057;-61
2021/09/15 00:41:56;;;;;;;48.08;17.85;;;;;;;-149.78;100.00;50389.31;5026954;28;20068;-60
2021/09/15 00:44:22;;;;;;;56.25;20.08;;;;;;;-149.78;100.00;50424.50;5024142;28;20038;-60
2021/09/15 00:46:48;;;;;;;53.20;19.27;;;;;;;-149.78;100.00;50420.59;5016562;28;20052;-61
2021/09/15 00:49:14;;;;;;;51.08;18.35;;;;;;;-149.78;100.00;50408.84;5023018;28;20032;-61
2021/09/15 00:51:41;;;;;;;49.17;17.95;;;;;;;-149.78;100.00;50404.94;5017982;28;20037;-61
2021/09/15 00:54:09;;;;;;;47.92;17.48;;;;;;;-149.78;100.00;50430.38;5021914;28;20461;-60
2021/09/15 00:56:35;;;;;;;50.22;18.23;;;;;;;-149.78;100.00;50440.16;5023545;28;20056;-61
2021/09/15 00:59:01;;;;;;;50.92;17.90;;;;;;;-149.78;100.00;50436.25;5022408;28;20104;-60
2021/09/15 01:01:28;;;;;;;51.42;19.17;;;;;;;-149.78;100.00;50436.25;5020019;28;20026;-60
2021/09/15 01:03:54;;;;;;;49.60;18.98;;;;;;;-149.78;100.00;50404.94;5021459;28;20033;-60
2021/09/15 01:06:20;;;;;;;50.88;18.50;;;;;;;-149.78;100.00;50422.56;5022673;28;20033;-60
2021/09/15 01:08:46;;;;;;;49.15;18.42;;;;;;;-149.78;100.00;50436.25;5026325;28;20389;-60
2021/09/15 01:11:11;;;;;;;53.08;19.85;;;;;;;-149.78;100.00;50412.78;5027020;28;20405;-60
2021/09/15 01:13:38;;;;;;;50.13;18.23;;;;;;;-149.78;100.00;50453.84;5023360;28;20040;-61
2021/09/15 01:16:05;;;;;;;51.35;19.40;;;;;;;-149.78;100.00;50412.78;5020603;28;20088;-60
2021/09/15 01:18:31;;;;;;;53.25;19.30;;;;;;;-149.78;100.00;50420.59;5022848;28;20117;-60
2021/09/15 01:20:56;;;;;;;52.90;19.75;;;;;;;-149.78;100.00;50420.59;5029764;28;20120;-60
2021/09/15 01:23:22;;;;;;;53.03;18.80;;;;;;;-149.78;100.00;50424.50;5021622;28;20107;-60
2021/09/15 01:25:48;;;;;;;51.30;18.73;;;;;;;-149.78;100.00;50436.25;5023541;28;20084;-60
2021/09/15 01:28:14;;;;;;;51.95;18.40;;;;;;;-149.78;100.00;50424.50;5020443;28;20412;-60
2021/09/15 01:30:41;;;;;;;48.38;18.08;;;;;;;-149.78;100.00;50487.09;5020404;28;20046;-60
2021/09/15 01:33:13;;;;;;;47.72;17.33;;;;;;;-149.78;100.00;50465.56;5025614;28;20026;-60
2021/09/15 01:35:41;;;;;;;45.35;16.73;;;;;;;-149.78;100.00;50451.88;5022641;28;20060;-60
2021/09/15 01:38:07;;;;;;;46.30;17.13;;;;;;;-149.78;100.00;50426.47;5028712;28;20030;-60
2021/09/15 01:40:32;;;;;;;42.63;15.70;;;;;;;-149.78;100.00;50420.59;5024340;28;20374;-60
2021/09/15 01:42:58;;;;;;;40.70;15.75;;;;;;;-149.78;100.00;50428.41;5022838;28;20044;-60
2021/09/15 01:45:23;;;;;;;43.60;17.17;;;;;;;-149.78;100.00;50449.94;5020119;28;20030;-60
2021/09/15 01:47:49;;;;;;;37.47;15.32;;;;;;;-149.78;100.00;50414.72;5026715;28;20044;-60
2021/09/15 01:50:15;;;;;;;41.22;15.75;;;;;;;-149.78;100.00;50455.81;5025831;28;20039;-60
2021/09/15 01:52:41;;;;;;;37.95;14.52;;;;;;;-149.78;100.00;50432.31;5027954;28;20037;-60
2021/09/15 01:55:17;;;;;;;39.17;15.38;;;;;;;-149.78;100.00;50426.47;5028457;28;20033;-60
2021/09/15 02:12:26;;;;;;;39.70;14.60;;;;;;;-149.78;100.00;50467.53;5022727;28;20436;-60
2021/09/15 02:14:52;;;;;;;39.10;16.13;;;;;;;-149.78;100.00;50432.31;5024276;28;20088;-60
2021/09/15 02:17:17;;;;;;;36.83;15.10;;;;;;;-149.78;100.00;50426.47;5027980;28;20034;-60
2021/09/15 02:19:43;;;;;;;40.08;15.18;;;;;;;-149.78;100.00;50436.25;5029334;28;20033;-60
2021/09/15 02:22:09;;;;;;;39.92;15.52;;;;;;;-149.78;100.00;50401.03;5027919;28;20077;-59
2021/09/15 02:24:34;;;;;;;36.53;14.88;;;;;;;-149.78;100.00;50455.81;5026341;28;20045;-60
2021/09/15 02:27:00;;;;;;;34.63;14.98;;;;;;;-149.78;100.00;50444.06;5026979;28;20045;-60
2021/09/15 02:29:27;;;;;;;35.03;13.82;;;;;;;-149.78;100.00;50449.94;5028826;28;20137;-60
2021/09/15 02:31:53;;;;;;;41.00;15.35;;;;;;;-149.78;100.00;50457.75;5026882;28;20037;-60
2021/09/15 02:34:19;;;;;;;38.95;15.05;;;;;;;-149.78;100.00;50457.75;5021666;28;20543;-60
2021/09/15 02:36:44;;;;;;;33.25;14.45;;;;;;;-149.78;100.00;50408.84;5024079;28;20078;-60
2021/09/15 02:39:10;;;;;;;34.35;14.15;;;;;;;-149.78;100.00;50471.44;5028151;28;20052;-60
2021/09/15 02:41:36;;;;;;;39.88;15.70;;;;;;;-149.78;100.00;50447.97;5025703;28;20033;-60
2021/09/15 02:44:02;;;;;;;34.33;14.70;;;;;;;-149.78;100.00;50440.16;5024941;28;20045;-60
2021/09/15 02:46:31;;;;;;;34.35;14.75;;;;;;;-149.78;100.00;50440.16;5021576;28;20524;-60
2021/09/15 02:48:57;;;;;;;40.75;15.25;;;;;;;-149.78;100.00;50428.41;5024333;28;20034;-60
2021/09/15 02:51:23;;;;;;;33.90;14.57;;;;;;;-149.78;100.00;50459.72;5022633;28;20037;-60
2021/09/15 02:53:48;;;;;;;34.55;13.65;;;;;;;-149.78;100.00;50471.44;5026695;28;20489;-61
2021/09/15 02:56:15;;;;;;;36.53;14.75;;;;;;;-149.78;100.00;50436.25;5027695;28;20092;-61
2021/09/15 02:58:41;;;;;;;34.40;13.90;;;;;;;-149.78;100.00;50459.72;5024892;28;20554;-60
2021/09/15 03:01:06;;;;;;;40.15;16.25;;;;;;;-149.78;100.00;50436.25;5023212;28;20049;-60
2021/09/15 03:03:32;;;;;;;31.85;13.43;;;;;;;-149.78;100.00;50420.59;5028132;28;20084;-60
2021/09/15 03:05:57;;;;;;;36.20;14.80;;;;;;;-149.78;100.00;50455.81;5023285;28;20107;-61
2021/09/15 03:08:23;;;;;;;34.72;13.57;;;;;;;-149.78;100.00;50455.81;5022573;28;20096;-60
2021/09/15 03:10:49;;;;;;;37.38;14.60;;;;;;;-149.78;100.00;50412.78;5028915;28;20108;-60
2021/09/15 03:13:15;;;;;;;35.78;13.90;;;;;;;-149.78;100.00;50440.16;5023020;28;20060;-60
2021/09/15 03:15:40;;;;;;;36.90;14.75;;;;;;;-149.78;100.00;50481.22;5024833;28;20124;-60
2021/09/15 03:18:06;;;;;;;37.72;15.30;;;;;;;-149.78;100.00;50412.78;5028459;28;20068;-60
2021/09/15 03:20:32;;;;;;;39.15;15.18;;;;;;;-149.78;100.00;50428.41;5024590;28;20041;-60
2021/09/15 03:22:58;;;;;;;39.08;14.93;;;;;;;-149.78;100.00;50420.59;5027692;28;20042;-60
2021/09/15 03:25:24;;;;;;;38.08;14.93;;;;;;;-149.78;100.00;50406.91;5028447;28;20116;-61
2021/09/15 03:27:50;;;;;;;36.53;14.27;;;;;;;-149.78;100.00;50436.25;5027615;28;20177;-60
2021/09/15 03:37:37;;;;;;;39.83;15.45;;;;;;;-149.78;100.00;50428.41;5017768;28;20516;-61
2021/09/15 03:40:03;;;;;;;42.75;15.00;;;;;;;-149.78;100.00;50447.97;5020624;28;20034;-60
2021/09/15 03:42:31;;;;;;;43.15;15.65;;;;;;;-149.78;100.00;50440.16;5022646;28;20045;-60
2021/09/15 03:44:56;;;;;;;46.25;16.65;;;;;;;-149.78;100.00;50451.88;5016640;28;20030;-60
2021/09/15 03:47:22;;;;;;;44.90;15.68;;;;;;;-149.78;100.00;50463.63;5017767;28;20125;-60
2021/09/15 03:49:48;;;;;;;41.67;15.45;;;;;;;-149.78;100.00;50436.25;5018019;28;20030;-60
2021/09/15 03:52:14;;;;;;;39.13;15.07;;;;;;;-149.78;100.00;50432.31;5019548;28;20091;-61
2021/09/15 03:54:40;;;;;;;37.17;14.60;;;;;;;-149.78;100.00;50444.06;5020600;28;20052;-60
2021/09/15 03:57:05;;;;;;;43.88;14.63;;;;;;;-149.78;100.00;50440.16;5017843;28;20033;-60
2021/09/15 03:59:31;;;;;;;38.53;14.60;;;;;;;-149.78;100.00;50455.81;5020995;28;20035;-60
2021/09/15 04:01:56;;;;;;;36.13;14.80;;;;;;;-149.78;100.00;50428.41;5019695;28;20030;-60
2021/09/15 04:04:22;;;;;;;37.58;14.73;;;;;;;-149.78;100.00;50401.03;5016647;28;20029;-60
2021/09/15 04:06:48;;;;;;;39.78;15.35;;;;;;;-149.78;100.00;50463.63;5016012;28;20033;-59
2021/09/15 04:09:13;;;;;;;37.55;14.25;;;;;;;-149.78;100.00;50404.94;5019033;28;20111;-60
2021/09/15 04:19:06;;;;;;;40.20;14.35;;;;;;;-149.78;100.00;50447.97;5022591;28;20048;-59
2021/09/15 04:21:32;;;;;;;35.95;14.70;;;;;;;-149.78;100.00;50428.41;5020740;28;20033;-60
2021/09/15 04:32:30;;;;;;;30.50;13.38;;;;;;;-149.78;100.00;50459.72;5024865;28;20054;-60
2021/09/15 04:34:56;;;;;;;35.30;15.13;;;;;;;-149.78;100.00;50432.31;5022894;28;20108;-60
2021/09/15 04:37:25;;;;;;;37.78;14.55;;;;;;;-149.78;100.00;50451.88;5027022;28;20080;-60
2021/09/15 04:39:51;;;;;;;35.22;13.85;;;;;;;-149.78;100.00;50487.09;5025603;28;20038;-61
2021/09/15 04:42:16;;;;;;;36.05;14.75;;;;;;;-149.78;100.00;50422.56;5027509;28;20032;-60
2021/09/15 04:44:42;;;;;;;38.42;15.05;;;;;;;-149.78;100.00;50453.84;5023952;28;20040;-60
2021/09/15 04:50:48;;;;;;;40.30;16.27;;;;;;;-149.78;100.00;50428.41;5029054;28;20527;-61
2021/09/15 04:53:14;;;;;;;39.00;13.95;;;;;;;-149.78;100.00;50436.25;5018829;28;20033;-60
2021/09/15 04:55:39;;;;;;;36.67;14.27;;;;;;;-149.78;100.00;50426.47;5022586;28;20038;-60
2021/09/15 04:58:05;;;;;;;34.00;14.75;;;;;;;-149.78;100.00;50424.50;5022661;28;20507;-60
2021/09/15 05:00:32;;;;;;;38.30;14.15;;;;;;;-149.78;100.00;50467.53;5028663;28;20061;-60
2021/09/15 05:02:58;;;;;;;30.83;13.75;;;;;;;-149.78;100.00;50483.19;5026497;28;20038;-60
2021/09/15 05:05:24;;;;;;;38.03;14.35;;;;;;;-149.78;100.00;50440.16;5027850;28;20045;-60
2021/09/15 05:07:50;;;;;;;35.05;14.23;;;;;;;-149.78;100.00;50459.72;5021541;28;20145;-60
2021/09/15 05:10:16;;;;;;;29.13;12.68;;;;;;;-149.78;100.00;50461.66;5028687;28;20053;-60
2021/09/15 05:12:42;;;;;;;31.05;13.23;;;;;;;-149.78;100.00;50455.81;5024602;28;20048;-60
2021/09/15 05:15:08;;;;;;;40.88;14.52;;;;;;;-149.78;100.00;50449.94;5026509;28;20037;-60
2021/09/15 05:17:34;;;;;;;29.98;12.88;;;;;;;-149.78;100.00;50463.63;5019688;28;20033;-60
2021/09/15 05:19:59;;;;;;;30.85;12.45;;;;;;;-149.78;100.00;50428.41;5018539;28;20044;-60
2021/09/15 05:22:26;;;;;;;24.83;10.88;;;;;;;-149.78;100.00;50469.50;5021880;28;20462;-60
2021/09/15 05:24:53;;;;;;;29.15;12.20;;;;;;;-149.78;100.00;50438.19;5027537;28;20070;-60
2021/09/15 05:27:20;;;;;;;27.42;11.50;;;;;;;-149.78;100.00;50457.75;5029550;28;20038;-60
2021/09/15 05:29:46;;;;;;;26.15;11.48;;;;;;;-149.78;100.00;50447.97;5023328;28;20022;-60
2021/09/15 05:32:12;;;;;;;26.33;11.25;;;;;;;-149.78;100.00;50434.28;5024880;28;20033;-60
2021/09/15 05:34:41;;;;;;;25.45;10.43;;;;;;;-149.78;100.00;50416.69;5025786;28;20456;-60
2021/09/15 05:37:06;;;;;;;23.95;10.23;;;;;;;-149.78;100.00;50424.50;5027041;28;20037;-60
2021/09/15 05:39:32;;;;;;;24.50;10.13;;;;;;;-149.78;100.00;50447.97;5022514;28;20125;-60
2021/09/15 05:41:57;;;;;;;23.63;9.98;;;;;;;-149.78;100.00;50420.59;5028301;28;20040;-60
2021/09/15 05:44:23;;;;;;;25.23;10.68;;;;;;;-149.78;100.00;50459.72;5029227;28;20029;-60
2021/09/15 05:46:49;;;;;;;25.98;10.73;;;;;;;-149.78;100.00;50430.38;5027216;28;20073;-60
2021/09/15 05:49:15;;;;;;;21.55;10.10;;;;;;;-149.78;100.00;50471.44;5022240;28;20377;-60
2021/09/15 05:51:40;;;;;;;26.48;11.40;;;;;;;-149.78;100.00;50436.25;5026288;28;20033;-60
2021/09/15 05:54:08;;;;;;;26.33;10.00;;;;;;;-149.78;100.00;50436.25;5024348;28;20036;-60
2021/09/15 05:56:34;;;;;;;27.17;10.57;;;;;;;-149.78;100.00;50440.16;5026249;28;20038;-60
2021/09/15 05:59:00;;;;;;;25.70;10.63;;;;;;;-149.78;100.00;50424.50;5028217;28;20044;-60
2021/09/15 06:01:26;;;;;;;20.45;9.15;;;;;;;-149.78;100.00;50461.66;5024351;28;20481;-60
2021/09/15 06:03:51;;;;;;;20.73;10.10;;;;;;;-149.78;100.00;50477.31;5023150;28;20045;-60
2021/09/15 06:06:17;;;;;;;20.38;9.20;;;;;;;-149.78;100.00;50451.88;5024255;28;20088;-60
2021/09/15 06:08:43;;;;;;;21.52;9.32;;;;;;;-149.78;100.00;50451.88;5024192;28;20051;-60
2021/09/15 06:11:12;;;;;;;20.08;9.15;;;;;;;-149.78;100.00;50455.81;5019200;28;20545;-60
2021/09/15 06:13:37;;;;;;;20.15;9.13;;;;;;;-149.78;100.00;50459.72;5022333;28;20068;-60
2021/09/15 06:16:06;;;;;;;19.20;9.02;;;;;;;-149.78;100.00;50475.34;5026785;28;20041;-60
2021/09/15 06:18:33;;;;;;;23.58;9.95;;;;;;;-149.78;100.00;50479.28;5022122;28;20034;-60
2021/09/15 06:20:59;;;;;;;20.13;9.02;;;;;;;-149.78;100.00;50453.84;5029944;28;20037;-60
2021/09/15 06:23:25;;;;;;;21.55;9.65;;;;;;;-149.78;100.00;50463.63;5031355;28;20041;-60
2021/09/15 06:25:51;;;;;;;22.52;9.48;;;;;;;-149.78;100.00;50451.88;5023488;28;20041;-59
2021/09/15 06:28:17;;;;;;;23.38;9.73;;;;;;;-149.78;100.00;50447.97;5029199;28;20033;-59
2021/09/15 06:30:43;;;;;;;19.30;8.43;;;;;;;-149.78;100.00;50447.97;5020449;28;20390;-61
2021/09/15 06:33:09;;;;;;;20.17;8.88;;;;;;;-149.78;100.00;50440.16;5025238;28;20092;-60
2021/09/15 06:35:35;;;;;;;17.40;8.63;;;;;;;-149.78;100.00;50449.94;5016429;28;20078;-60
2021/09/15 06:38:01;;;;;;;23.05;8.32;;;;;;;-149.78;100.00;50440.16;5023820;28;20552;-60
2021/09/15 06:40:27;;;;;;;17.70;8.38;;;;;;;-149.78;100.00;50428.41;5026513;28;20042;-60
2021/09/15 06:42:52;;;;;;;16.88;7.55;;;;;;;-149.78;100.00;50461.66;5020871;28;20034;-60
2021/09/15 06:45:18;;;;;;;20.50;8.32;;;;;;;-149.78;100.00;50440.16;5020267;28;20080;-60
2021/09/15 06:47:45;;;;;;;19.35;8.63;;;;;;;-149.78;100.00;50455.81;5030783;28;20056;-61
2021/09/15 06:50:12;;;;;;;19.63;8.10;;;;;;;-149.78;100.00;50412.78;5037390;28;20032;-60
2021/09/15 06:52:39;;;;;;;15.80;7.55;;;;;;;-149.78;100.00;50471.44;5032496;28;20029;-61
2021/09/15 06:55:05;;;;;;;17.83;8.35;;;;;;;-149.78;100.00;50455.81;5028197;28;20116;-61
2021/09/15 06:57:31;;;;;;;15.55;7.72;;;;;;;-149.78;100.00;50436.25;5031931;28;20044;-61
2021/09/15 06:59:56;;;;;;;17.65;8.20;;;;;;;-149.78;100.00;50440.16;5023968;28;20025;-60
2021/09/15 07:02:22;;;;;;;18.08;7.88;;;;;;;-149.78;100.00;50424.50;5018949;28;20714;-60
2021/09/15 07:04:47;;;;;;;16.05;7.93;;;;;;;-149.78;100.00;50455.81;5024945;28;20124;-60
2021/09/15 07:07:13;;;;;;;18.23;7.60;;;;;;;-149.78;100.00;50424.50;5029726;28;20033;-60
2021/09/15 07:09:39;;;;;;;15.43;7.32;;;;;;;-149.78;100.00;50408.84;5018172;28;20346;-61
2021/09/15 07:12:05;;;;;;;13.70;7.10;;;;;;;-149.78;100.00;50483.19;5019553;28;20432;-61
2021/09/15 07:14:30;;;;;;;16.27;7.28;;;;;;;-149.78;100.00;50459.72;5030775;28;20037;-61
2021/09/15 07:16:56;;;;;;;12.38;6.22;;;;;;;-149.78;100.00;50459.72;5028427;28;20029;-61
2021/09/15 07:19:21;;;;;;;14.10;6.55;;;;;;;-149.78;100.00;50416.69;5026248;28;20385;-60
2021/09/15 07:21:47;;;;;;;13.13;6.75;;;;;;;-149.78;100.00;50483.19;5012409;28;20029;-61
2021/09/15 07:24:13;;;;;;;13.30;6.35;;;;;;;-149.78;100.00;50432.31;5006327;28;20029;-61
2021/09/15 07:26:39;;;;;;;10.57;6.15;;;;;;;-149.78;100.00;50451.88;5031115;28;20033;-61
2021/09/15 07:29:05;;;;;;;10.70;5.68;;;;;;;-149.78;100.00;50453.84;5029818;28;20033;-61
2021/09/15 07:31:37;;;;;;;9.77;5.18;;;;;;;-149.78;100.00;50408.84;5031231;28;20366;-61
2021/09/15 07:34:04;;;;;;;9.85;5.45;;;;;;;-149.78;100.00;50422.56;5024666;28;20043;-61
2021/09/15 07:36:30;;;;;;;8.52;4.90;;;;;;;-149.78;100.00;50451.88;5030640;28;20661;-61
2021/09/15 07:38:56;;;;;;;8.68;5.40;;;;;;;-149.78;100.00;50436.25;5030940;28;20096;-61
2021/09/15 07:41:21;;;;;;;8.85;5.20;;;;;;;-149.78;100.00;50432.31;5027073;28;20064;-61
2021/09/15 07:43:47;;;;;;;7.75;4.88;;;;;;;-149.78;100.00;50447.97;5030588;28;20029;-62
2021/09/15 07:46:14;;;;;;;7.15;4.85;;;;;;;-149.78;100.00;50479.28;5032568;28;20106;-62
2021/09/15 07:48:40;;;;;;;10.90;5.05;;;;;;;-149.78;100.00;50451.88;5026027;28;20030;-62
2021/09/15 07:51:06;;;;;;;10.43;5.28;;;;;;;-149.78;100.00;50420.59;5031305;28;20087;-61
2021/09/15 07:53:31;;;;;;;8.50;5.00;;;;;;;-149.78;100.00;50412.78;5027160;28;20034;-61
2021/09/15 07:55:57;;;;;;;8.25;4.75;;;;;;;-149.78;100.00;50451.88;5030631;28;20025;-62
2021/09/15 07:58:23;;;;;;;13.43;6.07;;;;;;;-149.78;100.00;50428.41;5024566;28;20559;-62
2021/09/15 08:00:49;;;;;;;10.35;5.13;;;;;;;-149.78;100.00;50428.41;5027553;28;20033;-62
2021/09/15 08:03:15;;;;;;;10.77;5.22;;;;;;;-149.78;100.00;50459.72;5032146;28;20400;-61
2021/09/15 08:05:41;;;;;;;7.47;4.75;;;;;;;-149.78;100.00;50467.53;5028902;28;20112;-61
2021/09/15 08:08:07;;;;;;;7.28;4.60;;;;;;;-149.78;100.00;50440.16;5032529;28;20127;-61
2021/09/15 08:10:33;;;;;;;7.72;3.65;;;;;;;-149.78;100.00;50444.06;5033105;28;20029;-62
2021/09/15 08:12:59;;;;;;;6.03;4.03;;;;;;;-149.78;100.00;50410.81;5031413;28;20515;-62
2021/09/15 08:15:25;;;;;;;7.95;3.80;;;;;;;-149.78;100.00;50401.03;5034223;28;20041;-62
2021/09/15 08:17:51;;;;;;;5.63;3.88;;;;;;;-149.78;100.00;50389.31;5030582;28;20033;-62
2021/09/15 08:20:17;;;;;;;5.90;3.60;;;;;;;-149.78;100.00;50377.56;5029789;28;20056;-62
2021/09/15 08:22:43;;;;;;;5.53;3.45;;;;;;;-149.78;100.00;50397.13;5033581;28;20384;-62
2021/09/15 08:25:09;;;;;;;3.88;3.17;;;;;;;-149.78;100.00;50369.75;5042118;28;20037;-62
2021/09/15 08:27:35;;;;;;;3.53;2.70;;;;;;;-149.78;100.00;50371.69;5037128;28;20025;-61
2021/09/15 08:30:01;;;;;;;3.88;2.80;;;;;;;-149.78;100.00;50395.16;5036284;28;20449;-62
2021/09/15 08:32:26;;;;;;;4.28;2.67;;;;;;;-149.78;100.00;50377.56;5038180;28;20112;-62
2021/09/15 08:34:52;;;;;;;3.75;2.88;;;;;;;-149.78;100.00;50373.66;5034752;28;20052;-61
2021/09/15 08:37:18;;;;;;;6.25;3.25;;;;;;;-149.78;100.00;50401.03;5038095;28;20439;-62
2021/09/15 08:39:44;;;;;;;4.00;3.05;;;;;;;-149.78;100.00;50397.13;5035262;28;20042;-62
2021/09/15 08:42:11;;;;;;;5.00;3.40;;;;;;;-149.78;100.00;50432.31;5041379;28;20041;-61
2021/09/15 08:44:36;;;;;;;5.18;3.63;;;;;;;-149.78;100.00;50416.69;5036183;28;20037;-62
2021/09/15 08:47:03;;;;;;;5.45;3.65;;;;;;;-149.78;100.00;50373.66;5034051;28;20041;-61
2021/09/15 08:49:30;;;;;;;4.05;3.00;;;;;;;-149.78;100.00;50381.47;5036131;28;20059;-62
2021/09/15 08:51:56;;;;;;;4.43;3.40;;;;;;;-149.78;100.00;50393.22;5031260;28;20052;-61
2021/09/15 08:54:22;;;;;;;5.05;3.78;;;;;;;-149.78;100.00;50428.41;5040094;28;20026;-61
2021/09/15 08:56:48;;;;;;;5.68;3.83;;;;;;;-149.78;100.00;50404.94;5033247;28;20088;-62
2021/09/15 08:59:13;;;;;;;5.65;3.83;;;;;;;-149.78;100.00;50369.75;5039947;28;20418;-61
2021/09/15 09:01:39;;;;;;;5.80;4.18;;;;;;;-149.78;100.00;50406.91;5034798;28;20129;-61
2021/09/15 09:04:11;;;;;;;5.10;3.67;;;;;;;-149.78;100.00;50391.25;5022343;28;20034;-61
2021/09/15 09:06:37;;;;;;;6.05;3.92;;;;;;;-149.78;100.00;50393.22;5033192;28;20044;-61
2021/09/15 09:09:04;;;;;;;5.25;3.70;;;;;;;-149.78;100.00;50358.00;5032991;28;20045;-61
2021/09/15 09:11:33;;;;;;;7.57;3.85;;;;;;;-149.78;100.00;50285.66;5032228;28;20029;-61
2021/09/15 09:14:01;;;;;;;4.43;3.20;;;;;;;-149.78;100.00;50240.66;5032052;28;20548;-62
2021/09/15 09:16:39;;;;;;;3.10;2.47;;;;;;;-149.78;100.00;50193.72;5034831;28;20373;-62
2021/09/15 09:19:07;;;;;;;3.70;2.90;;;;;;;-149.78;100.00;50228.94;5033332;28;20075;-62
2021/09/15 09:21:35;;;;;;;3.85;2.90;;;;;;;-149.78;100.00;50230.88;5035214;28;20036;-59
2021/09/15 09:24:04;;;;;;;3.83;3.10;;;;;;;-149.78;100.00;50240.66;5029145;28;20108;-60
2021/09/15 09:27:00;;;;;;;2.72;2.42;;;;;;;-149.78;100.00;50199.59;5035632;28;20037;-60
2021/09/15 09:29:32;;;;;;;3.22;2.60;;;;;;;-149.78;100.00;50158.53;5033629;28;20025;-60
2021/09/15 09:32:03;;;;;;;3.38;3.08;;;;;;;-149.78;80.61;50207.44;5035686;28;20473;-60
2021/09/15 09:34:31;;;;;;;3.20;2.88;;;;;;;-149.78;79.09;50242.63;5034034;28;20050;-59
2021/09/15 09:37:09;;;;;;;2.83;2.60;;;;;;;-149.78;73.39;50182.00;5033207;28;20444;-59
2021/09/15 09:39:48;;;;;;;3.75;2.50;;;;;;;-149.78;67.49;50127.25;5038620;28;20039;-60
2021/09/15 09:42:23;;;;;;;3.28;2.20;;;;;;;-149.78;60.14;50127.25;5032489;28;20400;-60
2021/09/15 09:44:52;;;;;;;2.58;2.38;;;;;;;-149.78;56.73;50119.41;5034887;28;20431;-59
2021/09/15 09:47:20;;;;;;;2.75;2.47;;;;;;;-149.78;59.17;50107.69;5026722;28;20048;-60
2021/09/15 09:49:57;;;;;;;3.55;2.50;;;;;;;-149.78;62.24;50172.22;5041586;28;20029;-60
2021/09/15 09:52:23;;;;;;;2.88;2.50;;;;;;;-149.78;73.55;50248.50;5033222;28;20095;-60
2021/09/15 09:54:58;;;;;;;3.08;2.63;;;;;;;-149.78;91.73;50279.78;5034510;28;20037;-59
2021/09/15 09:57:28;;;;;;;3.10;2.80;;;;;;;-149.78;100.00;50338.44;5028658;28;20072;-58
2021/09/15 09:59:54;;;;;;;4.70;2.55;;;;;;;-149.78;100.00;50346.28;5022580;28;20066;-58
2021/09/15 10:02:21;;;;;;;2.45;2.05;;;;;;;-149.78;100.00;50318.91;5040052;28;20037;-60
2021/09/15 10:04:47;;;;;;;1.48;1.38;;;;;;;-149.78;100.00;50334.53;5037498;28;20039;-61
2021/09/15 10:07:14;;;;;;;1.20;1.10;;;;;;;-149.78;100.00;50342.38;5030175;28;20029;-61
2021/09/15 10:09:43;;;;;;;1.00;1.00;;;;;;;-149.78;100.00;50350.19;5027840;28;20036;-62
2021/09/15 10:12:10;;;;;;;1.40;1.10;;;;;;;-149.78;100.00;50309.13;5026982;28;20034;-61
2021/09/15 10:14:36;;;;;;;4.25;1.30;;;;;;;-149.78;100.00;50363.88;5039663;28;20123;-61
2021/09/15 10:17:06;;;;;;;1.25;0.80;;;;;;;-149.78;100.00;50365.84;5034267;28;20505;-61
2021/09/15 10:19:39;;;;;;;1.33;1.15;;;;;;;-149.78;100.00;50350.19;5035972;28;20041;-61
2021/09/15 10:22:06;;;;;;;1.20;0.75;;;;;;;-149.78;100.00;50330.63;5038525;28;20030;-61
2021/09/15 10:24:47;;;;;;;1.30;1.00;;;;;;;-149.78;100.00;50336.50;5033709;28;20484;-61
2021/09/15 10:27:18;;;;;;;1.33;1.17;;;;;;;-149.78;100.00;50328.69;5035969;28;20507;-60
2021/09/15 10:29:59;;;;;;;1.83;1.20;;;;;;;-149.78;100.00;50275.88;5029975;28;20048;-61
2021/09/15 10:32:37;;;;;;;1.42;1.10;;;;;;;-149.78;100.00;50271.97;5031028;28;20029;-61
2021/09/15 10:35:12;;;;;;;1.40;1.30;;;;;;;-149.78;94.43;50240.66;5035406;28;20132;-61
2021/09/15 10:37:37;;;;;;;0.77;0.77;;;;;;;-149.78;83.31;50246.53;5033959;28;20041;-60
2021/09/15 10:40:09;;;;;;;0.70;0.70;;;;;;;-149.78;72.94;50228.94;5035720;28;20389;-61
2021/09/15 10:42:38;;;;;;;0.68;0.68;;;;;;;-149.78;71.77;50183.97;5035541;28;20041;-61
2021/09/15 10:45:10;;;;;;;1.30;1.13;;;;;;;-149.78;67.01;50217.19;5034325;28;20182;-59
2021/09/15 10:47:38;;;;;;;0.55;0.55;;;;;;;-149.78;68.63;50178.09;5033062;28;20033;-59
2021/09/15 10:50:04;;;;;;;0.70;0.70;;;;;;;-149.78;63.71;50213.28;5039332;28;20029;-59
2021/09/15 10:52:35;;;;;;;0.70;0.70;;;;;;;-149.78;65.39;50205.47;5031312;28;20401;-59
2021/09/15 10:55:13;;;;;;;0.80;0.80;;;;;;;-149.78;61.11;50180.03;5038268;28;20041;-59
2021/09/15 10:57:43;;;;;;;1.95;0.80;;;;;;;-149.78;60.35;50148.75;5032857;28;20041;-59
2021/09/15 11:00:15;;;;;;;0.90;0.90;;;;;;;-149.78;59.20;50164.41;5036347;28;20037;-59
2021/09/15 11:02:43;;;;;;;0.70;0.70;;;;;;;-149.78;60.54;50195.69;5033483;28;20438;-59
2021/09/15 11:05:26;;;;;;;1.10;1.00;;;;;;;-149.78;60.83;50166.34;5035379;28;20095;-58
2021/09/15 11:07:55;;;;;;;0.98;0.90;;;;;;;-149.78;60.73;50178.09;5031361;28;20029;-60
2021/09/15 11:10:32;;;;;;;1.48;0.90;;;;;;;-149.78;61.91;50172.22;5034135;28;20352;-61
2021/09/15 11:13:05;;;;;;;1.10;1.00;;;;;;;-149.78;61.34;50172.22;5032336;28;20036;-60
2021/09/15 11:16:16;;;;;;;1.20;1.00;;;;;;;-149.78;63.20;50225.03;5037732;28;20166;-60
2021/09/15 11:18:52;;;;;;;1.05;1.00;;;;;;;-149.78;63.06;50205.47;5032040;28;20033;-60
2021/09/15 11:21:19;;;;;;;1.00;0.88;;;;;;;-149.78;67.19;50221.13;5034191;28;20052;-60
2021/09/15 11:23:45;;;;;;;1.85;0.98;;;;;;;-149.78;70.25;50197.66;5024215;28;20482;-60
2021/09/15 11:26:11;;;;;;;1.27;1.00;;;;;;;-149.78;71.71;50260.22;5030489;28;20048;-61
2021/09/15 11:28:36;;;;;;;1.83;1.10;;;;;;;-149.78;72.86;50205.47;5037623;28;20037;-61
2021/09/15 11:31:03;;;;;;;2.70;1.00;;;;;;;-149.78;77.09;50248.50;5033650;28;20033;-60
2021/09/15 11:33:37;;;;;;;1.05;0.93;;;;;;;-149.78;76.69;50271.97;5027764;28;20069;-60
2021/09/15 11:36:09;;;;;;;0.90;0.90;;;;;;;-149.78;79.90;50252.41;5022645;28;20050;-60
2021/09/15 11:38:42;;;;;;;1.55;1.30;;;;;;;-149.78;80.10;50281.75;5034513;28;20037;-60
2021/09/15 11:41:16;;;;;;;1.00;0.95;;;;;;;-149.78;85.08;50244.59;5043579;28;20447;-60
2021/09/15 11:43:47;;;;;;;1.20;1.10;;;;;;;-149.78;79.89;50283.69;5032787;28;20053;-60